New York, New York
Traffic Map
Current Weather Conditions
New York, New York
Overcast
Overcast
16°
Feels Like: 16°
Wind Chill: 16° Ceiling: 3700
Heat Index: 16° Visibility: 10mi
Dew Point: 11° Wind: 7mph
Humidity: 75% Direction: 340° (NNW)
Pressure: 30.39in Gusts: 0mph
Raw Report DataKNYC 220251Z AUTO 34006KT 10SM OVC037 16/11 A3039 RMK AO2 RAE29 SLP283 P0006 60006 T01560111 51042 $
Traffic Incident Summary
Active as of:
Severity:
Category:
InformationThere was an issue retrieving the traffic information for this location. Please try a different location or try again shortly.
Advertisements